地図

経路データ

SID SEASON NUMBER BASIN SUBBASIN NAME ISO_TIME NATURE LAT LON WMO_WIND WMO_PRES WMO_AGENCY TRACK_TYPE DIST2LAND LANDFALL IFLAG USA_AGENCY USA_ATCF_ID USA_LAT USA_LON USA_RECORD USA_STATUS USA_WIND USA_PRES USA_SSHS USA_R34_NE USA_R34_SE USA_R34_SW USA_R34_NW USA_R50_NE USA_R50_SE USA_R50_SW USA_R50_NW USA_R64_NE USA_R64_SE USA_R64_SW USA_R64_NW USA_POCI USA_ROCI USA_RMW USA_EYE TOKYO_LAT TOKYO_LON TOKYO_GRADE TOKYO_WIND TOKYO_PRES TOKYO_R50_DIR TOKYO_R50_LONG TOKYO_R50_SHORT TOKYO_R30_DIR TOKYO_R30_LONG TOKYO_R30_SHORT TOKYO_LAND CMA_LAT CMA_LON CMA_CAT CMA_WIND CMA_PRES HKO_LAT HKO_LON HKO_CAT HKO_WIND HKO_PRES NEWDELHI_LAT NEWDELHI_LON NEWDELHI_GRADE NEWDELHI_WIND NEWDELHI_PRES NEWDELHI_CI NEWDELHI_DP NEWDELHI_POCI REUNION_LAT REUNION_LON REUNION_TYPE REUNION_WIND REUNION_PRES REUNION_TNUM REUNION_CI REUNION_RMW REUNION_R34_NE REUNION_R34_SE REUNION_R34_SW REUNION_R34_NW REUNION_R50_NE REUNION_R50_SE REUNION_R50_SW REUNION_R50_NW REUNION_R64_NE REUNION_R64_SE REUNION_R64_SW REUNION_R64_NW BOM_LAT BOM_LON BOM_TYPE BOM_WIND BOM_PRES BOM_TNUM BOM_CI BOM_RMW BOM_R34_NE BOM_R34_SE BOM_R34_SW BOM_R34_NW BOM_R50_NE BOM_R50_SE BOM_R50_SW BOM_R50_NW BOM_R64_NE BOM_R64_SE BOM_R64_SW BOM_R64_NW BOM_ROCI BOM_POCI BOM_EYE BOM_POS_METHOD BOM_PRES_METHOD NADI_LAT NADI_LON NADI_CAT NADI_WIND NADI_PRES WELLINGTON_LAT WELLINGTON_LON WELLINGTON_WIND WELLINGTON_PRES DS824_LAT DS824_LON DS824_STAGE DS824_WIND DS824_PRES TD9636_LAT TD9636_LON TD9636_STAGE TD9636_WIND TD9636_PRES TD9635_LAT TD9635_LON TD9635_WIND TD9635_PRES TD9635_ROCI NEUMANN_LAT NEUMANN_LON NEUMANN_CLASS NEUMANN_WIND NEUMANN_PRES MLC_LAT MLC_LON MLC_CLASS MLC_WIND MLC_PRES USA_GUST BOM_GUST BOM_GUST_PER REUNION_GUST REUNION_GUST_PER USA_SEAHGT USA_SEARAD_NE USA_SEARAD_SE USA_SEARAD_SW USA_SEARAD_NW STORM_SPEED STORM_DIR
1973056S11073 1973 25 SI MM KITTY 1973-02-25 06:00:00 TS -11.1000 72.7000 main 1894 1879 O________OO___ jtwc_sh SH241973 -11.1000 72.7000 -1 -11.1000 72.7000 TC 25 -11.1000 72.7000 1 4 225
1973056S11073 1973 25 SI MM KITTY 1973-02-25 09:00:00 TS -11.2449 72.5515 main 1879 1848 P________PP___ SH241973 -11.2525 72.5475 -1 -11.2525 72.5475 TC 25 -11.2297 72.5594 1 4 225
1973056S11073 1973 25 SI MM KITTY 1973-02-25 12:00:00 TS -11.3892 72.4050 main 1848 1833 O________OP___ jtwc_sh SH241973 -11.4000 72.4000 -1 -11.4000 72.4000 TC 25 -11.3676 72.4150 1 4 224
1973056S11073 1973 25 SI MM KITTY 1973-02-25 15:00:00 TS -11.5355 72.2593 main 1833 1802 P________PP___ SH241973 -11.5425 72.2575 -1 -11.5425 72.2575 TC 25 -11.5216 72.2631 1 4 224
1973056S11073 1973 25 SI MM KITTY 1973-02-25 18:00:00 TS -11.7000 72.1000 main 1802 1772 O________OO___ jtwc_sh SH241973 -11.7000 72.1000 -1 -11.7000 72.1000 TC 25 -11.7000 72.1000 1 5 224
1973056S11073 1973 25 SI MM KITTY 1973-02-25 21:00:00 TS -11.8925 71.9125 main 1772 1742 P________PP___ SH241973 -11.8850 71.9075 -1 -11.8850 71.9075 TC 25 -11.9075 71.9225 1 6 223
1973056S11073 1973 25 SI MM KITTY 1973-02-26 00:00:00 TS -12.1116 71.7100 main 1742 1711 O________OP___ jtwc_sh SH241973 -12.1000 71.7000 -1 -12.1000 71.7000 TC 25 -12.1349 71.7300 1 6 220
1973056S11073 1973 25 SI MM KITTY 1973-02-26 03:00:00 TS -12.3566 71.5125 main 1705 1675 P________PP___ SH241973 -12.3500 71.5075 -1 -12.3500 71.5075 TC 25 -12.3699 71.5225 1 6 219
1973056S11073 1973 25 SI MM KITTY 1973-02-26 06:00:00 TS -12.6000 71.3000 main 1675 1645 O________OO___ jtwc_sh SH241973 -12.6000 71.3000 -1 -12.6000 71.3000 TC 25 -12.6000 71.3000 1 6 224
1973056S11073 1973 25 SI MM KITTY 1973-02-26 09:00:00 TS -12.8114 71.0625 main 1645 1605 P________PP___ SH241973 -12.8075 71.0575 -1 -12.8075 71.0575 TC 25 -12.8193 71.0725 1 6 229
1973056S11073 1973 25 SI MM KITTY 1973-02-26 12:00:00 TS -13.0100 70.8100 main 1605 1575 O________OP___ jtwc_sh SH241973 -13.0000 70.8000 -1 -13.0000 70.8000 TC 25 -13.0299 70.8300 1 6 230
1973056S11073 1973 25 SI MM KITTY 1973-02-26 15:00:00 TS -13.2185 70.5625 main 1575 1536 P________PP___ SH241973 -13.2150 70.5575 -1 -13.2150 70.5575 TC 25 -13.2255 70.5725 1 6 232
1973056S11073 1973 25 SI MM KITTY 1973-02-26 18:00:00 TS -13.4000 70.3000 main 1536 1502 O________OO___ jtwc_sh SH241973 -13.4000 70.3000 -1 -13.4000 70.3000 TC 25 -13.4000 70.3000 1 6 241
1973056S11073 1973 25 SI MM KITTY 1973-02-26 21:00:00 TS -13.5151 70.0069 main 1502 1469 P________PP___ SH241973 -13.5075 70.0074 -1 -13.5075 70.0074 TC 25 -13.5303 70.0060 1 6 250
1973056S11073 1973 25 SI MM KITTY 1973-02-27 00:00:00 TS -13.6142 69.6999 main 1469 1435 O________OP___ jtwc_sh SH241973 -13.6000 69.7000 -1 -13.6000 69.7000 TC 25 -13.6426 69.6996 1 6 249
1973056S11073 1973 25 SI MM KITTY 1973-02-27 03:00:00 TS -13.7428 69.3928 main 1435 1407 P________PP___ SH241973 -13.7350 69.3925 -1 -13.7350 69.3925 TC 30 -13.7585 69.3935 1 6 267
1973056S11073 1973 25 SI MM KITTY 1973-02-27 06:00:00 TS -13.6429 69.1000 reunion main 1413 1389 O____O___OO_O_ jtwc_sh SH241973 -13.9000 69.1000 -1 -12.1000 69.1000 2 9.90000 -13.9000 69.1000 TC 35 -13.9000 69.1000 2 -12.1000 69.1000 TC 30 5 275
1973056S11073 1973 25 SI MM KITTY 1973-02-27 09:00:00 TS -13.6995 68.8898 main 1389 1359 P____P___PP_P_ SH241973 -14.0849 68.8424 -1 -12.5400 69.0349 2 -14.0849 68.8424 TC 35 -14.0879 68.8395 2 -12.5400 69.0349 TC 32 5 240
1973056S11073 1973 25 SI MM KITTY 1973-02-27 12:00:00 TS -13.8677 68.6983 reunion main 1359 1329 O____O___OP_O_ jtwc_sh SH241973 -14.3000 68.6000 -1 -13.0000 68.9000 99 9.90000 -14.3000 68.6000 TC 35 -14.3048 68.5923 2 -13.0000 68.9000 TC 35 6 224
1973056S11073 1973 25 SI MM KITTY 1973-02-27 15:00:00 TS -14.1229 68.4728 main 1329 1278 P____P___PP_P_ SH241973 -14.5425 68.3500 -1 -13.4926 68.6576 99 -14.5425 68.3500 TC 35 -14.5442 68.3488 2 -13.4926 68.6576 TC 37 8 217
1973056S11073 1973 25 SI MM KITTY 1973-02-27 18:00:00 TS -14.4800 68.2200 reunion main 1278 1242 O____O___OO_O_ jtwc_sh SH241973 -14.8000 68.1000 -1 -14.0000 68.4000 99 9.90000 -14.8000 68.1000 TC 35 -14.8000 68.1000 2 -14.0000 68.4000 TC 40 8 212
1973056S11073 1973 25 SI MM KITTY 1973-02-27 21:00:00 TS -14.8214 68.0150 main 1242 1207 P____P___PP_P_ SH241973 -15.0424 67.8574 -1 -14.5074 68.2423 99 -15.0424 67.8574 TC 35 -15.0073 67.8754 2 -14.5074 68.2423 TC 42 8 210
1973056S11073 1973 25 SI MM KITTY 1973-02-28 00:00:00 TS -15.1673 67.8075 reunion main 1202 1167 O____O___OP_O_ jtwc_sh SH241973 -15.3000 67.6000 -1 -15.0000 68.1000 99 9.90000 -15.3000 67.6000 TC 35 -15.2367 67.6376 2 -15.0000 68.1000 TC 45 8 212
1973056S11073 1973 25 SI MM KITTY 1973-02-28 03:00:00 TS -15.5035 67.5779 main 1167 1118 P____P___PP_P_ SH241973 -15.5548 67.3371 -1 -15.4424 67.9297 99 -15.5548 67.3371 TC 35 -15.5227 67.3561 2 -15.4424 67.9297 TC 47 9 215
1973056S11073 1973 25 SI MM KITTY 1973-02-28 06:00:00 TS -15.9000 67.2800 reunion main 1118 1054 O____O___OO_O_ jtwc_sh SH241973 -15.9000 67.0000 -1 -15.9000 67.7000 3 9.90000 -15.9000 67.0000 TC 35 -15.9000 67.0000 2 -15.9000 67.7000 TC 50 11 216
1973056S11073 1973 25 SI MM KITTY 1973-02-28 09:00:00 TS -16.4261 66.8745 main 1054 978 P____P___PP_P_ SH241973 -16.3975 66.5449 -1 -16.4500 67.3801 3 -16.3975 66.5449 TC 35 -16.4355 66.5226 2 -16.4500 67.3801 TC 52 14 217
1973056S11073 1973 25 SI MM KITTY 1973-02-28 12:00:00 TS -17.0112 66.3939 reunion main 978 903 O____O___OP_O_ jtwc_sh SH241973 -17.0000 66.0000 -1 -17.0000 67.0000 99 9.90000 -17.0000 66.0000 TC 35 -17.0558 65.9697 2 -17.0000 67.0000 TC 55 15 219
1973056S11073 1973 25 SI MM KITTY 1973-02-28 15:00:00 TS -17.5856 65.8883 main 903 835 P____P___PP_P_ SH241973 -17.6575 65.4077 -1 -17.4574 66.6221 99 -17.6575 65.4077 TC 35 -17.6981 65.3818 2 -17.4574 66.6221 TC 55 15 221
1973056S11073 1973 25 SI MM KITTY 1973-02-28 18:00:00 TS -18.1400 65.3600 reunion main 835 768 O____O___OO_O_ jtwc_sh SH241973 -18.3000 64.8000 -1 -17.9000 66.2000 99 9.90000 -18.3000 64.8000 TC 35 -18.3000 64.8000 2 -17.9000 66.2000 TC 55 15 223
1973056S11073 1973 25 SI MM KITTY 1973-02-28 21:00:00 TS -18.6602 64.8385 main 755 693 P____P___PP_P_ SH241973 -18.8449 64.2272 -1 -18.3997 65.7447 99 -18.8449 64.2272 TC 35 -18.8117 64.2488 2 -18.3997 65.7447 TC 57 14 225
1973056S11073 1973 25 SI MM KITTY 1973-03-01 00:00:00 TS -19.1340 64.3035 reunion main 693 633 O____O___OP_O_ jtwc_sh SH241973 -19.3000 63.7000 -1 -18.9000 65.2000 99 9.90000 -19.3000 63.7000 TC 35 -19.2700 63.7175 2 -18.9000 65.2000 TC 60 14 229
1973056S11073 1973 25 SI MM KITTY 1973-03-01 03:00:00 TS -19.5606 63.7424 main 621 565 P____P___PP_P_ SH241973 -19.6949 63.2123 -1 -19.3725 64.5300 99 -19.6949 63.2123 TC 50 -19.6682 63.2273 2 -19.3725 64.5300 TC 60 13 233
1973056S11073 1973 25 SI MM KITTY 1973-03-01 06:00:00 TS -19.9200 63.2000 reunion main 565 511 O____O___OO_O_ jtwc_sh SH241973 -20.0000 62.8000 -1 -19.8000 63.8000 4 9.90000 -20.0000 62.8000 TC 65 -20.0000 62.8000 4 -19.8000 63.8000 TC 60 12 238
1973056S11073 1973 25 SI MM KITTY 1973-03-01 09:00:00 TS -20.1836 62.6900 main 511 469 P____P___PP_P_ SH241973 -20.2223 62.4697 -1 -20.1128 63.0321 4 -20.2223 62.4697 TC 65 -20.2477 62.4466 4 -20.1128 63.0321 TC 62 10 239
1973056S11073 1973 25 SI MM KITTY 1973-03-01 12:00:00 TS -20.4473 62.2716 reunion main 469 439 O____O___OP_O_ jtwc_sh SH241973 -20.4000 62.2000 -1 -20.5000 62.4000 99 9.90000 -20.4000 62.2000 TC 65 -20.4366 62.1581 4 -20.5000 62.4000 TC 65 9 226
1973056S11073 1973 25 SI MM KITTY 1973-03-01 15:00:00 TS -20.8263 61.9810 main 440 425 P____P___PP_P_ SH241973 -20.5925 61.9349 -1 -21.1696 62.0598 99 -20.5925 61.9349 TC 65 -20.6073 61.9157 4 -21.1696 62.0598 TC 67 9 210
1973056S11073 1973 25 SI MM KITTY 1973-03-01 18:00:00 TS -21.2400 61.7800 reunion main 427 416 O____O___OO_O_ jtwc_sh SH241973 -20.8000 61.7000 -1 -21.9000 61.9000 99 9.90000 -20.8000 61.7000 TC 65 -20.8000 61.7000 4 -21.9000 61.9000 TC 70 9 205
1973056S11073 1973 25 SI MM KITTY 1973-03-01 21:00:00 TS -21.6044 61.5891 main 420 414 P____P___PP_P_ SH241973 -21.0274 61.4924 -1 -22.4724 61.7474 99 -21.0274 61.4924 TC 65 -21.0224 61.4658 4 -22.4724 61.7474 TC 67 8 203
1973056S11073 1973 25 SI MM KITTY 1973-03-02 00:00:00 TS -21.9760 61.4509 reunion main 427 418 O____O___OP_O_ jtwc_sh SH241973 -21.3000 61.3000 -1 -23.0000 61.7000 99 9.90000 -21.3000 61.3000 TC 65 -21.2799 61.2544 4 -23.0000 61.7000 TC 65 8 194
1973056S11073 1973 25 SI MM KITTY 1973-03-02 03:00:00 TS -22.3935 61.3729 main 437 437 P____P___PP_P_ SH241973 -21.6125 61.0924 -1 -23.5725 61.8068 99 -21.6125 61.0924 TC 65 -21.5975 61.0658 4 -23.5725 61.8068 TC 62 9 189
1973056S11073 1973 25 SI MM KITTY 1973-03-02 06:00:00 MX -22.8400 61.3000 reunion main 452 452 O____O___OO_O_ jtwc_sh SH241973 -22.0000 60.9000 -1 -24.1000 61.9000 4 9.90000 -22.0000 60.9000 TC 65 -22.0000 60.9000 4 -24.1000 61.9000 EX 60 9 193
1973056S11073 1973 25 SI MM KITTY 1973-03-02 09:00:00 MX -23.2917 61.1430 main 470 470 P____P___PP_P_ SH241973 -22.4475 60.7349 -1 -24.5451 61.7655 4 -22.4475 60.7349 TC 65 -22.4733 60.7140 4 -24.5451 61.7655 EX 60 10 197
1973056S11073 1973 25 SI MM KITTY 1973-03-02 12:00:00 TS -23.7670 60.9909 reunion main 501 501 O____O___OP_O_ jtwc_sh SH241973 -23.0000 60.6000 -1 -24.9000 61.6000 99 9.90000 -23.0000 60.6000 TC 65 -23.0352 60.5546 4 -24.9000 61.6000 TC 60 10 192
1973056S11073 1973 25 SI MM KITTY 1973-03-02 15:00:00 TS -24.2579 60.9135 main 537 537 P____P___PP_P_ SH241973 -23.6400 60.4703 -1 -25.1650 61.5922 99 -23.6400 60.4703 TC 65 -23.6795 60.4427 4 -25.1650 61.5922 TC 60 10 186
1973056S11073 1973 25 SI MM KITTY 1973-03-02 18:00:00 TS -24.8000 60.8800 reunion main 582 582 O____O___OO_O_ jtwc_sh SH241973 -24.4000 60.4000 -1 -25.4000 61.6000 99 9.90000 -24.4000 60.4000 TC 65 -24.4000 60.4000 4 -25.4000 61.6000 TC 60 12 183
1973056S11073 1973 25 SI MM KITTY 1973-03-02 21:00:00 TS -25.4475 60.8499 main 632 632 P____P___PP_P_ SH241973 -25.2850 60.4051 -1 -25.7000 61.5002 99 -25.2850 60.4051 TC 50 -25.2673 60.4390 4 -25.7000 61.5002 TC 57 13 181
1973056S11073 1973 25 SI MM KITTY 1973-03-03 00:00:00 TS -26.1180 60.8699 reunion main 705 705 O____O___OP_O_ jtwc_sh SH241973 -26.2000 60.5000 -1 -26.0000 61.4000 99 9.90000 -26.2000 60.5000 TC 35 -26.1898 60.5497 4 -26.0000 61.4000 TC 55 13 176
1973056S11073 1973 25 SI MM KITTY 1973-03-03 03:00:00 TS -26.7375 60.9610 main 770 770 P____P___PP_P_ SH241973 -27.0825 60.6770 -1 -26.2275 61.3701 99 -27.0825 60.6770 TC 35 -27.0675 60.7109 4 -26.2275 61.3701 TC 55 12 170
1973056S11073 1973 25 SI MM KITTY 1973-03-03 06:00:00 MX -27.2800 61.1000 reunion main 834 834 O____O___OO_O_ jtwc_sh SH241973 -27.8000 60.9000 -1 -26.5000 61.4000 3 9.90000 -27.8000 60.9000 TC 35 -27.8000 60.9000 2 -26.5000 61.4000 EX 55 10 165
1973056S11073 1973 25 SI MM KITTY 1973-03-03 09:00:00 MX -27.7099 61.2471 main 879 879 P____P___PP_P_ SH241973 -28.2324 61.1004 -1 -26.9275 61.4774 3 -28.2324 61.1004 TC 35 -28.2295 61.0798 2 -26.9275 61.4774 EX 52 8 160
1973056S11073 1973 25 SI MM KITTY 1973-03-03 12:00:00 TS -28.0625 61.4159 reunion main 928 928 O____O___OP_O_ jtwc_sh SH241973 -28.5000 61.3000 -1 -27.4000 61.6000 99 9.90000 -28.5000 61.3000 TC 35 -28.5123 61.2795 2 -27.4000 61.6000 TC 50 7 155
1973056S11073 1973 25 SI MM KITTY 1973-03-03 15:00:00 TS -28.3558 61.5951 main 966 966 P____P___PP_P_ SH241973 -28.7350 61.5004 -1 -27.7850 61.7426 99 -28.7350 61.5004 TC 35 -28.7389 61.4893 2 -27.7850 61.7426 TC 45 7 152
1973056S11073 1973 25 SI MM KITTY 1973-03-03 18:00:00 TS -28.6800 61.7800 reunion main 1005 1005 O____O___OO_O_ jtwc_sh SH241973 -29.0000 61.7000 -1 -28.2000 61.9000 99 9.90000 -29.0000 61.7000 TC 35 -29.0000 61.7000 2 -28.2000 61.9000 TC 40 8 159
1973056S11073 1973 25 SI MM KITTY 1973-03-03 21:00:00 TS -29.1214 61.9341 main 1049 1049 P____P___PP_P_ SH241973 -29.4125 61.9001 -1 -28.6973 62.0061 99 -29.4125 61.9001 TC 35 -29.3875 61.8580 2 -28.6973 62.0061 TC 40 10 163
1973056S11073 1973 25 SI MM KITTY 1973-03-04 00:00:00 TS -29.6458 62.1244 reunion main 1108 1108 O____O___OP_O_ jtwc_sh SH241973 -29.9000 62.1000 -1 -29.3000 62.2000 99 9.90000 -29.9000 62.1000 TC 35 -29.8290 62.0220 2 -29.3000 62.2000 TC 40 12 160
1973056S11073 1973 25 SI MM KITTY 1973-03-04 03:00:00 TS -30.2222 62.3922 main 1181 1181 P____P___PP_P_ SH241973 -30.3623 62.2710 -1 -30.0276 62.5971 99 -30.3623 62.2710 TC 35 -30.3310 62.2247 2 -30.0276 62.5971 TC 40 13 156
1973056S11073 1973 25 SI MM KITTY 1973-03-04 06:00:00 MX -30.8600 62.7400 reunion main 1264 1264 O____O___OO_O_ jtwc_sh SH241973 -30.9000 62.5000 -1 -30.8000 63.1000 5 9.90000 -30.9000 62.5000 TC 35 -30.9000 62.5000 2 -30.8000 63.1000 EX 40 15 154
1973056S11073 1973 25 SI MM KITTY 1973-03-04 09:00:00 MX -31.5300 63.1470 main 1341 1341 P____P___PP_P_ SH241973 -31.5699 62.8477 -1 -31.4773 63.5864 5 -31.5699 62.8477 TC 35 -31.5555 62.8667 2 -31.4773 63.5864 EX 40 16 152
1973056S11073 1973 25 SI MM KITTY 1973-03-04 12:00:00 TS -32.2539 63.6229 reunion main 1442 1442 O____O___OP_O_ jtwc_sh SH241973 -32.3000 63.3000 -1 -32.2000 64.1000 99 9.90000 -32.3000 63.3000 TC 35 -32.2696 63.3143 2 -32.2000 64.1000 TC 40 17 151
1973056S11073 1973 25 SI MM KITTY 1973-03-04 15:00:00 TS -33.0274 64.1311 main 1532 1532 P____P___PP_P_ SH241973 -33.0149 63.8202 -1 -33.0541 64.5926 99 -33.0149 63.8202 TC 35 -32.9989 63.8300 2 -33.0541 64.5926 TC 40 18 150
1973056S11073 1973 25 SI MM KITTY 1973-03-04 18:00:00 TS -33.8200 64.7200 reunion main 1637 1605 O____O___OO_O_ jtwc_sh SH241973 -33.7000 64.4000 -1 -34.0000 65.2000 99 9.90000 -33.7000 64.4000 TC 35 -33.7000 64.4000 2 -34.0000 65.2000 TC 40 19 146
1973056S11073 1973 25 SI MM KITTY 1973-03-04 21:00:00 TS -34.6000 65.4151 main 1605 1518 P____P___PP_P_ SH241973 -34.3221 64.9786 -1 -35.0080 66.0540 99 -34.3221 64.9786 TC 35 -34.3399 65.0104 2 -35.0080 66.0540 TC 40 19 142
1973056S11073 1973 25 SI MM KITTY 1973-03-05 00:00:00 TS -35.3451 66.1705 reunion main 1517 1432 O____O___OP_O_ jtwc_sh SH241973 -34.9000 65.6000 -1 -36.0000 67.0000 99 9.90000 -34.9000 65.6000 TC 35 -34.9253 65.6523 2 -36.0000 67.0000 TC 40 19 139
1973056S11073 1973 25 SI MM KITTY 1973-03-05 03:00:00 TS -36.0312 66.9261 main 1432 1360 P____P___PP_P_ SH241973 -35.4560 66.2804 -1 -36.8854 67.8758 99 -35.4560 66.2804 TC 35 -35.4731 66.3180 2 -36.8854 67.8758 TC 37 18 138
1973056S11073 1973 25 SI MM KITTY 1973-03-05 06:00:00 MX -36.6800 67.6800 reunion main 1349 O____O___OO_O_ jtwc_sh SH241973 -36.0000 67.0000 -1 -37.7000 68.7000 5 9.90000 -36.0000 67.0000 TC 35 -36.0000 67.0000 2 -37.7000 68.7000 EX 35 18 137

IBTrACS Databaseについて

本データベースは、米国NOAAが公開する1842年以降の世界の熱帯低気圧のベストトラックデータアーカイブInternational Best Track Archive for Climate Stewardship (IBTrACS)を、ウェブで閲覧しやすい形式に変換したものです。

最終更新日:2021-10-25